Eships Agamid — ZDHS9 — position and weather

sailwx.info

Track history (hours):
 
Tides and Currents Weather Stations Pressure Air Temp Water Temp Dewpoint Dewpoint Depression Visibility Wind Speed Wind Dir Waves Ship Positions

Eships Agamid

Last reported at 2015-Jul-28 09:33 UTC. Time now 2015-Jul-28 10:20 UTC.
Position N 51°24' E 002°38'.

Length 128 m; draft 7.2 m.

Type: Tanker. MMSI: 236355000.

Date/timePositionNaut miles runAvg speedWind from/ knotsBaromVisibWave heightAir tempDewpointWater temp
2015-Jul-28 09:33N 51°24' E 002°38'2712.1
2015-Jul-28 07:18N 51°12' E 001°59'1013.0
2015-Jul-28 06:33N 51°07' E 001°46'1212.3
2015-Jul-28 05:33N 50°58' E 001°32'9510.0
2015-Jul-27 20:06N 49°49' W 000°09'611.2
2015-Jul-27 19:34N 49°43' W 000°09'1111.2
2015-Jul-27 18:33N 49°32' W 000°08'9 9.1
2015-Jul-27 17:33N 49°27' E 000°04'9 9.0
2015-Jul-27 16:33N 49°26' E 000°18'8 7.8
2015-Jul-27 15:33N 49°29' E 000°29'2 2.1
2015-Jul-27 14:28N 49°28' E 000°32'0 0.0
2015-Jul-27 13:28N 49°28' E 000°32'0 0.0
2015-Jul-27 12:33N 49°28' E 000°32'0 0.0
2015-Jul-27 11:33N 49°28' E 000°32'0 0.0
2015-Jul-27 10:33N 49°28' E 000°32'0 0.0
2015-Jul-27 09:33N 49°28' E 000°32'0 0.0
2015-Jul-27 08:33N 49°28' E 000°32'0 0.0
2015-Jul-27 07:33N 49°28' E 000°32'0 0.0
2015-Jul-27 06:33N 49°28' E 000°32'0 0.0
2015-Jul-27 05:33N 49°28' E 000°32'0 0.0
2015-Jul-27 04:33N 49°28' E 000°32'0 0.0
2015-Jul-27 03:33N 49°28' E 000°32'0 0.0
2015-Jul-27 02:33N 49°28' E 000°32'0 0.0
2015-Jul-27 01:33N 49°28' E 000°32'0 0.0
2015-Jul-27 00:33N 49°28' E 000°32'0 0.0
2015-Jul-26 23:33N 49°28' E 000°32'0 0.0
2015-Jul-26 22:33N 49°28' E 000°32'0 0.0
2015-Jul-26 21:33N 49°28' E 000°32'0 0.0
2015-Jul-26 20:33N 49°28' E 000°32'0 0.0
2015-Jul-26 19:33N 49°28' E 000°32'0 0.0
2015-Jul-26 18:33N 49°28' E 000°32'0 0.0
2015-Jul-26 17:33N 49°28' E 000°32'0 0.0
2015-Jul-26 16:33N 49°28' E 000°32'0 0.0
2015-Jul-26 15:33N 49°28' E 000°32'0 0.0
2015-Jul-26 14:33N 49°28' E 000°32'0 0.0
2015-Jul-26 13:33N 49°28' E 000°32'0 0.0
2015-Jul-26 12:33N 49°28' E 000°32'0 0.0
2015-Jul-26 11:33N 49°28' E 000°32'0 0.0
2015-Jul-26 10:33N 49°28' E 000°32'0 0.0
2015-Jul-26 09:33N 49°28' E 000°32'0 0.0
2015-Jul-26 08:33N 49°28' E 000°32'0 0.0
2015-Jul-26 07:33N 49°28' E 000°32'0 0.0
2015-Jul-26 06:33N 49°28' E 000°32'0 0.0
2015-Jul-26 05:33N 49°28' E 000°32'0 0.0
2015-Jul-26 04:33N 49°28' E 000°32'0 0.0
2015-Jul-26 03:33N 49°28' E 000°32'1 0.6
2015-Jul-26 02:33N 49°28' E 000°33'8 7.6
2015-Jul-26 01:33N 49°26' E 000°21'1211.8
2015-Jul-26 00:33N 49°27' E 000°03'5 5.4
2015-Jul-25 23:33N 49°28' W 000°05'0 0.1
2015-Jul-25 22:33N 49°28' W 000°05'0 0.0
2015-Jul-25 21:33N 49°28' W 000°05'0 0.0
2015-Jul-25 20:33N 49°28' W 000°05'0 0.0
2015-Jul-25 19:33N 49°28' W 000°05'0 0.0
2015-Jul-25 18:33N 49°28' W 000°05'0 0.0
2015-Jul-25 17:33N 49°28' W 000°05'0 0.0
2015-Jul-25 16:33N 49°28' W 000°05'7 7.2
2015-Jul-25 15:34N 49°32' W 000°14'1414.0
2015-Jul-25 14:33N 49°38' W 000°33'207 8.8
2015-Jul-24 15:12N 47°55' W 005°05'811.2
2015-Jul-24 14:31N 47°51' W 004°55'4711.8
2015-Jul-24 10:32N 47°37' W 003°49'1312.9
2015-Jul-24 09:33N 47°40' W 003°31'7 7.1
2015-Jul-24 08:33N 47°44' W 003°21'0 0.0
2015-Jul-24 07:33N 47°44' W 003°21'0 0.0
2015-Jul-24 06:33N 47°44' W 003°21'0 0.0
2015-Jul-24 05:33N 47°44' W 003°21'0 0.0
2015-Jul-24 04:33N 47°44' W 003°21'0 0.0
2015-Jul-24 03:33N 47°44' W 003°21'0 0.0
2015-Jul-24 02:33N 47°44' W 003°21'0 0.0
2015-Jul-24 01:33N 47°44' W 003°21'0 0.0
2015-Jul-24 00:33N 47°44' W 003°21'0 0.0
2015-Jul-23 23:33N 47°44' W 003°21'0 0.0
2015-Jul-23 22:33N 47°44' W 003°21'0 0.0
2015-Jul-23 21:33N 47°44' W 003°21'0 0.0
2015-Jul-23 20:33N 47°44' W 003°21'0 0.0
2015-Jul-23 19:33N 47°44' W 003°21'0 0.0
2015-Jul-23 18:33N 47°44' W 003°21'0 0.0
2015-Jul-23 17:33N 47°44' W 003°21'0 0.0
2015-Jul-23 16:33N 47°44' W 003°21'0 0.0
2015-Jul-23 15:33N 47°44' W 003°21'0 0.0
2015-Jul-23 14:33N 47°44' W 003°21'0 0.0
2015-Jul-23 13:33N 47°44' W 003°21'0 0.0
2015-Jul-23 12:33N 47°44' W 003°21'0 0.0
2015-Jul-23 11:33N 47°44' W 003°21'0 0.0
2015-Jul-23 10:33N 47°44' W 003°21'0 0.0
2015-Jul-23 09:33N 47°44' W 003°21'0 0.0
2015-Jul-23 08:33N 47°44' W 003°21'0 0.0
2015-Jul-23 07:33N 47°44' W 003°21'4 4.4
2015-Jul-23 06:33N 47°40' W 003°24'0 0.1
2015-Jul-23 05:33N 47°40' W 003°24'0 0.0
2015-Jul-23 04:33N 47°40' W 003°24'0 0.0
2015-Jul-23 03:33N 47°40' W 003°24'0 0.0
2015-Jul-23 02:33N 47°40' W 003°24'0 0.0
2015-Jul-23 01:33N 47°40' W 003°24'0 0.0
2015-Jul-23 00:33N 47°40' W 003°24'0 0.0
2015-Jul-22 23:33N 47°40' W 003°24'0 0.0
2015-Jul-22 22:33N 47°40' W 003°24'0 0.0
2015-Jul-22 21:33N 47°40' W 003°24'0 0.2
2015-Jul-22 20:33N 47°40' W 003°25'9 9.2
2015-Jul-22 19:33N 47°39' W 003°38'1010.4
2015-Jul-22 18:33N 47°29' W 003°39'1211.9
2015-Jul-22 17:33N 47°19' W 003°30'1211.5
2015-Jul-22 16:33N 47°10' W 003°19'1311.5
2015-Jul-22 15:23N 47°03' W 003°02'1111.3
2015-Jul-22 14:27N 47°00' W 002°47'1712.3
2015-Jul-22 13:05N 47°06' W 002°24'611.6
2015-Jul-22 12:33N 47°11' W 002°18'12 2.2
2015-Jul-22 07:11N 47°18' W 002°05'0 0.0
2015-Jul-22 06:32N 47°18' W 002°05'0 0.0
2015-Jul-22 05:20N 47°18' W 002°05'0 0.0
2015-Jul-22 03:17N 47°18' W 002°05'0 0.0
2015-Jul-22 02:26N 47°18' W 002°05'0 0.0
2015-Jul-22 00:08N 47°18' W 002°05'0 0.0
2015-Jul-21 22:26N 47°18' W 002°05'0 0.0
2015-Jul-21 20:26N 47°18' W 002°05'0 0.0
2015-Jul-21 19:20N 47°18' W 002°05'0 0.0
2015-Jul-21 18:32N 47°18' W 002°05'0 0.0
2015-Jul-21 17:32N 47°18' W 002°05'0 0.0
2015-Jul-21 16:23N 47°18' W 002°05'0 0.0
2015-Jul-21 13:32N 47°18' W 002°05'0 0.0
2015-Jul-21 12:32N 47°18' W 002°05'1 0.6
2015-Jul-21 11:33N 47°18' W 002°06'9 9.2
2015-Jul-21 10:33N 47°13' W 002°17'7 6.2
2015-Jul-21 09:26N 47°08' W 002°24'0 0.1
2015-Jul-21 08:05N 47°08' W 002°24'0 0.0
2015-Jul-21 07:29N 47°08' W 002°24'0 0.0
2015-Jul-21 06:23N 47°08' W 002°24'0 0.0
2015-Jul-21 05:32N 47°08' W 002°24'0 0.0
2015-Jul-21 04:32N 47°08' W 002°24'0 0.0
2015-Jul-21 03:23N 47°08' W 002°24'0 0.0
2015-Jul-21 02:32N 47°08' W 002°24'0 0.0
2015-Jul-21 01:29N 47°08' W 002°24'0 0.1
2015-Jul-21 00:32N 47°08' W 002°24'0 0.1
2015-Jul-20 23:32N 47°08' W 002°24'0 0.1
2015-Jul-20 22:14N 47°08' W 002°24'0 0.0
2015-Jul-20 21:32N 47°08' W 002°24'0 0.2
2015-Jul-20 20:33N 47°08' W 002°25'7 7.0
2015-Jul-20 19:33N 47°02' W 002°31'1211.9
2015-Jul-20 18:34N 46°53' W 002°41'1212.5
2015-Jul-20 17:34N 46°40' W 002°38'1312.8
2015-Jul-20 16:33N 46°30' W 002°27'1312.9
2015-Jul-20 15:31N 46°20' W 002°14'1313.7
2015-Jul-20 14:33N 46°09' W 002°03'20 0.5
2015-Jul-18 23:32N 45°53' W 001°45'1111.0
2015-Jul-18 22:33N 46°02' W 001°55'1413.2
2015-Jul-18 21:30N 46°13' W 002°07'1313.6
2015-Jul-18 20:33N 46°23' W 002°18'1413.7
2015-Jul-18 19:32N 46°34' W 002°31'1313.7
2015-Jul-18 18:33N 46°45' W 002°41'1414.1
2015-Jul-18 17:33N 46°59' W 002°41'1212.2
2015-Jul-18 16:33N 47°05' W 002°26'19 4.5
2015-Jul-18 12:21N 47°18' W 002°05'0 0.0
2015-Jul-18 11:27N 47°18' W 002°05'0 0.0
2015-Jul-18 10:33N 47°18' W 002°05'  
Track history (hours):
 
Tides and Currents Weather Stations Pressure Air Temp Water Temp Dewpoint Dewpoint Depression Visibility Wind Speed Wind Dir Waves Ship Positions

Eships Agamid

Last reported at 2015-Jul-28 09:33 UTC. Time now 2015-Jul-28 10:20 UTC.
Position N 51°24' E 002°38'.

Length 128 m; draft 7.2 m.

Type: Tanker. MMSI: 236355000.

Date/timePositionNaut miles runAvg speedWind from/ knotsBaromVisibWave heightAir tempDewpointWater temp
2015-Jul-28 09:33N 51°24' E 002°38'2712.1
2015-Jul-28 07:18N 51°12' E 001°59'1013.0
2015-Jul-28 06:33N 51°07' E 001°46'1212.3
2015-Jul-28 05:33N 50°58' E 001°32'9510.0
2015-Jul-27 20:06N 49°49' W 000°09'611.2
2015-Jul-27 19:34N 49°43' W 000°09'1111.2
2015-Jul-27 18:33N 49°32' W 000°08'9 9.1
2015-Jul-27 17:33N 49°27' E 000°04'9 9.0
2015-Jul-27 16:33N 49°26' E 000°18'8 7.8
2015-Jul-27 15:33N 49°29' E 000°29'2 2.1
2015-Jul-27 14:28N 49°28' E 000°32'0 0.0
2015-Jul-27 13:28N 49°28' E 000°32'0 0.0
2015-Jul-27 12:33N 49°28' E 000°32'0 0.0
2015-Jul-27 11:33N 49°28' E 000°32'0 0.0
2015-Jul-27 10:33N 49°28' E 000°32'0 0.0
2015-Jul-27 09:33N 49°28' E 000°32'0 0.0
2015-Jul-27 08:33N 49°28' E 000°32'0 0.0
2015-Jul-27 07:33N 49°28' E 000°32'0 0.0
2015-Jul-27 06:33N 49°28' E 000°32'0 0.0
2015-Jul-27 05:33N 49°28' E 000°32'0 0.0
2015-Jul-27 04:33N 49°28' E 000°32'0 0.0
2015-Jul-27 03:33N 49°28' E 000°32'0 0.0
2015-Jul-27 02:33N 49°28' E 000°32'0 0.0
2015-Jul-27 01:33N 49°28' E 000°32'0 0.0
2015-Jul-27 00:33N 49°28' E 000°32'0 0.0
2015-Jul-26 23:33N 49°28' E 000°32'0 0.0
2015-Jul-26 22:33N 49°28' E 000°32'0 0.0
2015-Jul-26 21:33N 49°28' E 000°32'0 0.0
2015-Jul-26 20:33N 49°28' E 000°32'0 0.0
2015-Jul-26 19:33N 49°28' E 000°32'0 0.0
2015-Jul-26 18:33N 49°28' E 000°32'0 0.0
2015-Jul-26 17:33N 49°28' E 000°32'0 0.0
2015-Jul-26 16:33N 49°28' E 000°32'0 0.0
2015-Jul-26 15:33N 49°28' E 000°32'0 0.0
2015-Jul-26 14:33N 49°28' E 000°32'0 0.0
2015-Jul-26 13:33N 49°28' E 000°32'0 0.0
2015-Jul-26 12:33N 49°28' E 000°32'0 0.0
2015-Jul-26 11:33N 49°28' E 000°32'0 0.0
2015-Jul-26 10:33N 49°28' E 000°32'0 0.0
2015-Jul-26 09:33N 49°28' E 000°32'0 0.0
2015-Jul-26 08:33N 49°28' E 000°32'0 0.0
2015-Jul-26 07:33N 49°28' E 000°32'0 0.0
2015-Jul-26 06:33N 49°28' E 000°32'0 0.0
2015-Jul-26 05:33N 49°28' E 000°32'0 0.0
2015-Jul-26 04:33N 49°28' E 000°32'0 0.0
2015-Jul-26 03:33N 49°28' E 000°32'1 0.6
2015-Jul-26 02:33N 49°28' E 000°33'8 7.6
2015-Jul-26 01:33N 49°26' E 000°21'1211.8
2015-Jul-26 00:33N 49°27' E 000°03'5 5.4
2015-Jul-25 23:33N 49°28' W 000°05'0 0.1
2015-Jul-25 22:33N 49°28' W 000°05'0 0.0
2015-Jul-25 21:33N 49°28' W 000°05'0 0.0
2015-Jul-25 20:33N 49°28' W 000°05'0 0.0
2015-Jul-25 19:33N 49°28' W 000°05'0 0.0
2015-Jul-25 18:33N 49°28' W 000°05'0 0.0
2015-Jul-25 17:33N 49°28' W 000°05'0 0.0
2015-Jul-25 16:33N 49°28' W 000°05'7 7.2
2015-Jul-25 15:34N 49°32' W 000°14'1414.0
2015-Jul-25 14:33N 49°38' W 000°33'207 8.8
2015-Jul-24 15:12N 47°55' W 005°05'811.2
2015-Jul-24 14:31N 47°51' W 004°55'4711.8
2015-Jul-24 10:32N 47°37' W 003°49'1312.9
2015-Jul-24 09:33N 47°40' W 003°31'7 7.1
2015-Jul-24 08:33N 47°44' W 003°21'0 0.0
2015-Jul-24 07:33N 47°44' W 003°21'0 0.0
2015-Jul-24 06:33N 47°44' W 003°21'0 0.0
2015-Jul-24 05:33N 47°44' W 003°21'0 0.0
2015-Jul-24 04:33N 47°44' W 003°21'0 0.0
2015-Jul-24 03:33N 47°44' W 003°21'0 0.0
2015-Jul-24 02:33N 47°44' W 003°21'0 0.0
2015-Jul-24 01:33N 47°44' W 003°21'0 0.0
2015-Jul-24 00:33N 47°44' W 003°21'0 0.0
2015-Jul-23 23:33N 47°44' W 003°21'0 0.0
2015-Jul-23 22:33N 47°44' W 003°21'0 0.0
2015-Jul-23 21:33N 47°44' W 003°21'0 0.0
2015-Jul-23 20:33N 47°44' W 003°21'0 0.0
2015-Jul-23 19:33N 47°44' W 003°21'0 0.0
2015-Jul-23 18:33N 47°44' W 003°21'0 0.0
2015-Jul-23 17:33N 47°44' W 003°21'0 0.0
2015-Jul-23 16:33N 47°44' W 003°21'0 0.0
2015-Jul-23 15:33N 47°44' W 003°21'0 0.0
2015-Jul-23 14:33N 47°44' W 003°21'0 0.0
2015-Jul-23 13:33N 47°44' W 003°21'0 0.0
2015-Jul-23 12:33N 47°44' W 003°21'0 0.0
2015-Jul-23 11:33N 47°44' W 003°21'0 0.0
2015-Jul-23 10:33N 47°44' W 003°21'0 0.0
2015-Jul-23 09:33N 47°44' W 003°21'0 0.0
2015-Jul-23 08:33N 47°44' W 003°21'0 0.0
2015-Jul-23 07:33N 47°44' W 003°21'4 4.4
2015-Jul-23 06:33N 47°40' W 003°24'0 0.1
2015-Jul-23 05:33N 47°40' W 003°24'0 0.0
2015-Jul-23 04:33N 47°40' W 003°24'0 0.0
2015-Jul-23 03:33N 47°40' W 003°24'0 0.0
2015-Jul-23 02:33N 47°40' W 003°24'0 0.0
2015-Jul-23 01:33N 47°40' W 003°24'0 0.0
2015-Jul-23 00:33N 47°40' W 003°24'0 0.0
2015-Jul-22 23:33N 47°40' W 003°24'0 0.0
2015-Jul-22 22:33N 47°40' W 003°24'0 0.0
2015-Jul-22 21:33N 47°40' W 003°24'0 0.2
2015-Jul-22 20:33N 47°40' W 003°25'9 9.2
2015-Jul-22 19:33N 47°39' W 003°38'1010.4
2015-Jul-22 18:33N 47°29' W 003°39'1211.9
2015-Jul-22 17:33N 47°19' W 003°30'1211.5
2015-Jul-22 16:33N 47°10' W 003°19'1311.5
2015-Jul-22 15:23N 47°03' W 003°02'1111.3
2015-Jul-22 14:27N 47°00' W 002°47'1712.3
2015-Jul-22 13:05N 47°06' W 002°24'611.6
2015-Jul-22 12:33N 47°11' W 002°18'12 2.2
2015-Jul-22 07:11N 47°18' W 002°05'0 0.0
2015-Jul-22 06:32N 47°18' W 002°05'0 0.0
2015-Jul-22 05:20N 47°18' W 002°05'0 0.0
2015-Jul-22 03:17N 47°18' W 002°05'0 0.0
2015-Jul-22 02:26N 47°18' W 002°05'0 0.0
2015-Jul-22 00:08N 47°18' W 002°05'0 0.0
2015-Jul-21 22:26N 47°18' W 002°05'0 0.0
2015-Jul-21 20:26N 47°18' W 002°05'0 0.0
2015-Jul-21 19:20N 47°18' W 002°05'0 0.0
2015-Jul-21 18:32N 47°18' W 002°05'0 0.0
2015-Jul-21 17:32N 47°18' W 002°05'0 0.0
2015-Jul-21 16:23N 47°18' W 002°05'0 0.0
2015-Jul-21 13:32N 47°18' W 002°05'0 0.0
2015-Jul-21 12:32N 47°18' W 002°05'1 0.6
2015-Jul-21 11:33N 47°18' W 002°06'9 9.2
2015-Jul-21 10:33N 47°13' W 002°17'7 6.2
2015-Jul-21 09:26N 47°08' W 002°24'0 0.1
2015-Jul-21 08:05N 47°08' W 002°24'0 0.0
2015-Jul-21 07:29N 47°08' W 002°24'0 0.0
2015-Jul-21 06:23N 47°08' W 002°24'0 0.0
2015-Jul-21 05:32N 47°08' W 002°24'0 0.0
2015-Jul-21 04:32N 47°08' W 002°24'0 0.0
2015-Jul-21 03:23N 47°08' W 002°24'0 0.0
2015-Jul-21 02:32N 47°08' W 002°24'0 0.0
2015-Jul-21 01:29N 47°08' W 002°24'0 0.1
2015-Jul-21 00:32N 47°08' W 002°24'0 0.1
2015-Jul-20 23:32N 47°08' W 002°24'0 0.1
2015-Jul-20 22:14N 47°08' W 002°24'0 0.0
2015-Jul-20 21:32N 47°08' W 002°24'0 0.2
2015-Jul-20 20:33N 47°08' W 002°25'7 7.0
2015-Jul-20 19:33N 47°02' W 002°31'1211.9
2015-Jul-20 18:34N 46°53' W 002°41'1212.5
2015-Jul-20 17:34N 46°40' W 002°38'1312.8
2015-Jul-20 16:33N 46°30' W 002°27'1312.9
2015-Jul-20 15:31N 46°20' W 002°14'1313.7
2015-Jul-20 14:33N 46°09' W 002°03'20 0.5
2015-Jul-18 23:32N 45°53' W 001°45'1111.0
2015-Jul-18 22:33N 46°02' W 001°55'1413.2
2015-Jul-18 21:30N 46°13' W 002°07'1313.6
2015-Jul-18 20:33N 46°23' W 002°18'1413.7
2015-Jul-18 19:32N 46°34' W 002°31'1313.7
2015-Jul-18 18:33N 46°45' W 002°41'1414.1
2015-Jul-18 17:33N 46°59' W 002°41'1212.2
2015-Jul-18 16:33N 47°05' W 002°26'19 4.5
2015-Jul-18 12:21N 47°18' W 002°05'0 0.0
2015-Jul-18 11:27N 47°18' W 002°05'0 0.0
2015-Jul-18 10:33N 47°18' W 002°05'  

Dump ship's entire track history